Time;durP1;ratioP1;P1;durP2;ratioP2;P2;SDS_P1;SDS_P2;PMS_P1;PMS_P2;Temp;Humidity;BMP_temperature;BMP_pressure;BME280_temperature;BME280_humidity;BME280_pressure;Samples;Min_cycle;Max_cycle;Signal;HPM_P1;HPM_P2
2022/07/25 00:01:38;;;;;;;10.65;7.03;;;;;;;18.40;91.09;100871.13;5114435;28;20027;-72
2022/07/25 00:04:03;;;;;;;8.93;7.40;;;;;;;18.32;91.23;100857.88;5114244;27;20078;-73
2022/07/25 00:06:29;;;;;;;8.70;7.30;;;;;;;18.36;91.70;100864.50;5114045;28;20565;-71
2022/07/25 00:08:54;;;;;;;9.20;8.05;;;;;;;18.35;91.70;100860.97;5114052;28;20039;-73
2022/07/25 00:11:20;;;;;;;10.45;7.70;;;;;;;18.30;91.39;100850.00;5114304;28;20122;-73
2022/07/25 00:13:45;;;;;;;11.88;8.30;;;;;;;18.30;91.78;100854.56;5114193;28;20083;-73
2022/07/25 00:16:11;;;;;;;12.70;8.68;;;;;;;18.31;92.17;100858.91;5112921;28;20031;-72
2022/07/25 00:18:36;;;;;;;11.88;8.73;;;;;;;18.28;92.64;100860.16;5114082;28;20122;-73
2022/07/25 00:21:02;;;;;;;9.00;7.35;;;;;;;18.26;92.29;100854.97;5114164;28;20031;-72
2022/07/25 00:23:28;;;;;;;9.45;8.50;;;;;;;18.15;92.34;100844.81;5113868;28;20078;-72
2022/07/25 00:25:53;;;;;;;9.18;7.60;;;;;;;18.24;92.54;100859.75;5112454;28;20036;-72
2022/07/25 00:28:19;;;;;;;9.25;7.75;;;;;;;18.19;92.98;100843.34;5113972;28;20544;-72
2022/07/25 00:30:44;;;;;;;9.88;7.80;;;;;;;18.18;93.28;100852.50;5113694;28;20036;-73
2022/07/25 00:33:10;;;;;;;10.57;7.85;;;;;;;18.23;93.35;100860.81;5113633;28;20043;-73
2022/07/25 00:35:35;;;;;;;7.78;6.97;;;;;;;18.30;93.13;100854.56;5113506;28;20043;-73
2022/07/25 00:38:00;;;;;;;9.45;7.93;;;;;;;18.37;93.15;100855.38;5113283;28;20144;-73
2022/07/25 00:40:53;;;;;;;11.82;7.05;;;;;;;18.38;92.74;100851.63;5113924;28;20047;-73
2022/07/25 00:43:18;;;;;;;10.40;8.13;;;;;;;18.42;92.62;100852.84;5113351;28;20043;-71
2022/07/25 00:45:44;;;;;;;11.27;8.10;;;;;;;18.46;92.62;100848.69;5113408;28;20034;-73
2022/07/25 00:48:09;;;;;;;8.65;7.50;;;;;;;18.45;92.56;100836.25;5113137;28;20397;-72
2022/07/25 00:50:35;;;;;;;8.73;7.22;;;;;;;18.51;92.37;100840.81;5113256;28;20131;-73
2022/07/25 00:53:01;;;;;;;8.68;7.25;;;;;;;18.59;91.93;100848.66;5111991;28;20027;-72
2022/07/25 00:55:27;;;;;;;8.05;7.30;;;;;;;18.55;91.63;100842.03;5113450;28;20035;-71
2022/07/25 00:57:53;;;;;;;9.45;7.90;;;;;;;18.45;91.79;100828.16;5113124;28;20035;-72
2022/07/25 01:00:19;;;;;;;8.90;6.88;;;;;;;18.50;91.86;100841.81;5113271;28;20478;-71
2022/07/25 01:02:44;;;;;;;10.57;7.32;;;;;;;18.45;92.14;100836.25;5111881;28;20040;-72
2022/07/25 01:05:10;;;;;;;8.30;6.88;;;;;;;18.45;91.88;100833.56;5112961;28;20445;-73
2022/07/25 01:07:38;;;;;;;7.75;7.00;;;;;;;18.43;92.37;100830.25;5112885;28;20135;-72
2022/07/25 01:10:05;;;;;;;8.00;7.20;;;;;;;18.38;92.08;100828.19;5112878;28;20443;-72
2022/07/25 01:12:30;;;;;;;9.95;7.55;;;;;;;18.32;92.70;100831.75;5113026;28;20032;-72
2022/07/25 01:14:56;;;;;;;8.60;7.70;;;;;;;18.29;93.16;100825.94;5113097;28;20031;-72
2022/07/25 01:17:22;;;;;;;8.43;7.63;;;;;;;18.30;93.02;100841.06;5112798;28;20119;-74
2022/07/25 01:19:50;;;;;;;7.90;6.90;;;;;;;18.29;93.00;100826.78;5112688;28;20481;-73
2022/07/25 01:22:16;;;;;;;7.93;6.78;;;;;;;18.36;93.15;100834.84;5113075;27;20039;-72
2022/07/25 01:24:42;;;;;;;10.38;7.60;;;;;;;18.37;93.12;100831.09;5112921;28;20092;-74
2022/07/25 01:27:07;;;;;;;8.50;7.25;;;;;;;18.39;93.25;100837.09;5112701;28;20031;-73
2022/07/25 01:29:33;;;;;;;9.52;7.20;;;;;;;18.32;92.92;100833.59;5112905;28;20039;-73
2022/07/25 01:31:58;;;;;;;8.98;7.30;;;;;;;18.33;93.58;100843.34;5111357;28;20483;-73
2022/07/25 01:34:24;;;;;;;7.93;7.18;;;;;;;18.20;93.28;100834.22;5112468;28;20126;-73
2022/07/25 01:36:49;;;;;;;10.73;7.75;;;;;;;18.24;93.08;100846.28;5112937;28;20032;-73
2022/07/25 01:39:15;;;;;;;8.30;7.13;;;;;;;18.20;93.20;100855.81;5111034;28;20078;-72
2022/07/25 01:41:42;;;;;;;7.05;6.32;;;;;;;18.15;93.68;100841.31;5112034;28;20038;-73
2022/07/25 01:44:07;;;;;;;8.02;7.22;;;;;;;18.10;93.24;100833.03;5112367;28;20110;-74
2022/07/25 01:46:33;;;;;;;7.85;7.05;;;;;;;18.22;93.57;100855.63;5112422;28;20051;-73
2022/07/25 01:48:58;;;;;;;10.63;7.38;;;;;;;18.27;93.41;100855.81;5112216;28;20036;-73
2022/07/25 01:51:24;;;;;;;9.30;6.85;;;;;;;18.29;92.94;100852.91;5112441;28;20429;-72
2022/07/25 01:53:49;;;;;;;8.43;6.57;;;;;;;18.20;92.77;100838.78;5111242;28;20501;-73
2022/07/25 01:56:15;;;;;;;9.43;6.38;;;;;;;18.32;92.68;100856.00;5111188;28;20043;-72
2022/07/25 01:58:40;;;;;;;10.30;7.20;;;;;;;18.38;92.70;100854.31;5112488;28;20035;-72
2022/07/25 02:01:06;;;;;;;7.45;6.70;;;;;;;18.40;92.57;100854.94;5112135;28;20035;-72
2022/07/25 02:03:31;;;;;;;6.85;5.75;;;;;;;18.48;92.58;100862.78;5112179;28;20044;-73
2022/07/25 02:05:59;;;;;;;6.97;6.25;;;;;;;18.53;91.95;100857.63;5112328;28;20035;-72
2022/07/25 02:08:24;;;;;;;7.50;6.30;;;;;;;18.57;91.77;100861.53;5112436;28;20031;-73
2022/07/25 02:10:50;;;;;;;9.77;7.40;;;;;;;18.58;91.48;100863.19;5111100;28;20042;-74
2022/07/25 02:13:17;;;;;;;8.75;6.70;;;;;;;18.61;91.16;100857.38;5112125;28;20475;-72
2022/07/25 02:16:02;;;;;;;8.38;7.25;;;;;;;18.66;90.89;100860.28;5111192;28;20081;-73
2022/07/25 02:18:28;;;;;;;7.85;7.13;;;;;;;18.69;91.22;100864.41;5111915;28;20032;-72
2022/07/25 02:20:53;;;;;;;9.50;6.90;;;;;;;18.72;91.09;100869.38;5111914;28;20482;-73
2022/07/25 02:23:19;;;;;;;8.13;7.32;;;;;;;18.73;90.63;100861.06;5112027;28;20035;-72
2022/07/25 02:25:44;;;;;;;7.03;6.03;;;;;;;18.75;90.65;100856.28;5111863;28;20036;-72
2022/07/25 02:28:10;;;;;;;7.95;7.10;;;;;;;18.76;90.83;100859.81;5111917;28;20035;-72
2022/07/25 02:30:35;;;;;;;7.15;6.45;;;;;;;18.75;90.83;100868.97;5111828;28;20130;-72
2022/07/25 02:33:01;;;;;;;9.07;6.85;;;;;;;18.74;90.16;100859.22;5112376;28;20036;-71
2022/07/25 02:35:26;;;;;;;7.00;6.30;;;;;;;18.72;90.01;100864.81;5112545;28;20122;-73
2022/07/25 02:37:53;;;;;;;9.90;6.72;;;;;;;18.72;90.23;100870.22;5112411;28;20035;-73
2022/07/25 02:40:20;;;;;;;8.77;6.95;;;;;;;18.73;90.39;100869.19;5112743;28;20051;-73
2022/07/25 02:42:47;;;;;;;8.52;7.00;;;;;;;18.72;90.47;100864.81;5112419;28;20047;-72
2022/07/25 02:45:12;;;;;;;6.75;5.68;;;;;;;18.71;90.49;100868.56;5112306;28;20405;-73
2022/07/25 02:47:38;;;;;;;7.70;6.90;;;;;;;18.66;90.83;100862.97;5112077;28;20044;-72
2022/07/25 02:50:04;;;;;;;8.38;6.22;;;;;;;18.64;91.08;100856.97;5110948;28;20343;-72
2022/07/25 02:52:30;;;;;;;6.95;6.15;;;;;;;18.68;90.86;100869.00;5114007;28;20551;-73
2022/07/25 02:54:55;;;;;;;9.80;6.68;;;;;;;18.72;91.09;100869.38;5114571;28;20032;-73
2022/07/25 02:57:20;;;;;;;6.90;6.20;;;;;;;18.79;90.91;100868.34;5115835;28;20458;-72
2022/07/25 02:59:46;;;;;;;7.43;6.35;;;;;;;18.82;90.72;100864.38;5115553;28;20050;-73
2022/07/25 03:02:11;;;;;;;6.30;5.70;;;;;;;18.83;90.47;100866.88;5115576;28;20088;-73
2022/07/25 03:04:37;;;;;;;7.60;6.32;;;;;;;18.88;90.47;100868.91;5115363;28;20065;-72
2022/07/25 03:07:02;;;;;;;7.10;5.93;;;;;;;18.92;90.26;100872.00;5115550;28;20427;-72
2022/07/25 03:09:28;;;;;;;8.50;5.85;;;;;;;18.97;90.11;100872.19;5115436;28;20517;-72
2022/07/25 03:11:53;;;;;;;8.50;6.18;;;;;;;18.99;90.07;100875.50;5115236;28;20080;-73
2022/07/25 03:14:19;;;;;;;7.93;6.20;;;;;;;19.01;89.69;100878.81;5115217;28;20046;-74
2022/07/25 03:16:44;;;;;;;7.25;6.03;;;;;;;19.05;89.49;100880.03;5114912;28;20486;-74
2022/07/25 03:19:11;;;;;;;7.82;6.20;;;;;;;19.06;89.56;100868.19;5115256;28;20027;-73
2022/07/25 03:21:37;;;;;;;7.20;5.80;;;;;;;19.08;89.60;100874.19;5115193;28;20087;-73
2022/07/25 03:24:03;;;;;;;7.72;5.88;;;;;;;18.82;89.60;100823.91;5115021;28;20040;-73
2022/07/25 03:26:28;;;;;;;6.45;5.88;;;;;;;19.11;89.43;100881.91;5115087;28;20388;-72
2022/07/25 03:28:54;;;;;;;6.63;5.50;;;;;;;19.09;89.51;100886.69;5114675;28;20569;-74
2022/07/25 03:31:19;;;;;;;6.75;6.07;;;;;;;19.07;89.44;100880.66;5115017;28;20039;-72
2022/07/25 03:33:45;;;;;;;6.93;5.85;;;;;;;19.05;89.88;100890.84;5115257;27;20096;-72
2022/07/25 03:36:10;;;;;;;8.60;5.53;;;;;;;19.02;89.80;100885.88;5113453;28;20069;-71
2022/07/25 03:38:38;;;;;;;7.57;5.95;;;;;;;19.01;89.83;100878.81;5114632;28;20055;-72
2022/07/25 03:41:28;;;;;;;9.32;6.03;;;;;;;19.11;89.45;100887.28;5115112;28;20069;-72
2022/07/25 03:43:55;;;;;;;7.38;6.53;;;;;;;19.19;89.13;100885.16;5114747;28;20562;-73
2022/07/25 03:46:20;;;;;;;7.70;5.85;;;;;;;19.21;88.31;100884.94;5114838;28;20119;-72
2022/07/25 03:48:46;;;;;;;7.10;5.78;;;;;;;19.16;88.51;100876.66;5114602;28;20031;-72
2022/07/25 03:51:11;;;;;;;6.95;6.32;;;;;;;19.15;88.45;100869.63;5114600;28;20056;-73
2022/07/25 03:54:00;;;;;;;11.18;7.20;;;;;;;19.22;88.05;100878.50;5114372;28;20120;-72
2022/07/25 03:56:22;;;;;;;7.75;6.95;;;;;;;19.29;87.73;100875.75;5114210;28;20439;-73
2022/07/25 03:58:48;;;;;;;8.07;5.68;;;;;;;19.32;87.46;100886.94;5114677;28;20183;-72
2022/07/25 04:01:13;;;;;;;7.38;6.57;;;;;;;19.30;87.32;100888.22;5114651;28;20040;-73
2022/07/25 04:03:39;;;;;;;8.05;6.80;;;;;;;19.22;87.16;100870.41;5112286;28;20027;-71
2022/07/25 04:06:04;;;;;;;11.73;6.65;;;;;;;19.33;87.24;100888.59;5114339;28;20028;-72
2022/07/25 04:08:30;;;;;;;7.05;6.03;;;;;;;19.39;87.16;100886.94;5114083;28;20122;-73
2022/07/25 04:10:55;;;;;;;8.75;6.47;;;;;;;19.36;86.89;100877.38;5113966;27;20483;-73
2022/07/25 04:13:21;;;;;;;10.15;7.03;;;;;;;19.44;86.54;100895.22;5114465;28;20465;-73
2022/07/25 04:15:46;;;;;;;9.57;7.35;;;;;;;19.50;85.48;100889.75;5113887;28;20039;-72
2022/07/25 04:18:12;;;;;;;9.98;7.30;;;;;;;19.53;85.00;100893.06;5113919;28;20134;-73
2022/07/25 04:20:37;;;;;;;10.27;7.70;;;;;;;19.45;85.00;100888.75;5113873;28;20123;-74
2022/07/25 04:23:03;;;;;;;9.90;7.53;;;;;;;19.50;84.57;100895.16;5113766;28;20047;-74
2022/07/25 04:25:29;;;;;;;11.75;9.75;;;;;;;19.47;84.52;100892.91;5113621;28;20050;-74
2022/07/25 04:27:55;;;;;;;9.35;7.53;;;;;;;19.45;84.55;100895.00;5114046;28;20035;-73
2022/07/25 04:30:21;;;;;;;10.57;8.52;;;;;;;19.61;84.10;100899.06;5114008;28;20036;-73
2022/07/25 04:32:46;;;;;;;9.93;7.97;;;;;;;19.81;83.10;100896.22;5113714;28;20074;-72
2022/07/25 04:35:15;;;;;;;12.52;7.78;;;;;;;19.83;82.39;100856.28;5113478;28;20038;-71
2022/07/25 04:37:40;;;;;;;11.85;7.00;;;;;;;20.28;82.03;100889.34;5113656;28;20031;-72
2022/07/25 04:40:10;;;;;;;7.93;6.32;;;;;;;20.32;81.12;100876.22;5113653;28;20409;-72
2022/07/25 04:42:37;;;;;;;6.22;5.57;;;;;;;20.33;80.75;100888.69;5113560;27;20050;-73
2022/07/25 04:45:03;;;;;;;7.32;6.05;;;;;;;20.38;80.66;100880.72;5113474;28;20043;-73
2022/07/25 04:47:29;;;;;;;8.20;4.72;;;;;;;20.40;80.41;100874.06;5113350;28;20443;-72
2022/07/25 04:49:54;;;;;;;6.20;5.28;;;;;;;20.44;80.37;100879.03;5113614;28;20039;-73
2022/07/25 04:52:20;;;;;;;8.38;5.38;;;;;;;20.39;80.64;100876.97;5111961;28;20092;-72
2022/07/25 04:54:45;;;;;;;4.85;4.35;;;;;;;20.39;80.38;100885.06;5114544;28;20077;-72
2022/07/25 04:57:10;;;;;;;6.15;4.55;;;;;;;20.34;80.82;100874.94;5115794;28;20043;-73
2022/07/25 04:59:36;;;;;;;4.32;3.92;;;;;;;20.25;80.63;100886.28;5115270;28;20046;-71
2022/07/25 05:02:02;;;;;;;6.35;3.97;;;;;;;20.09;81.15;100883.06;5119741;28;20122;-76
2022/07/25 05:04:27;;;;;;;6.97;5.35;;;;;;;19.96;82.23;100877.81;5126693;28;20027;-72
2022/07/25 05:06:53;;;;;;;5.97;4.63;;;;;;;19.91;82.78;100880.31;5123285;28;20036;-73
2022/07/25 05:09:19;;;;;;;5.82;4.88;;;;;;;19.71;83.41;100864.28;5121919;28;20023;-72
2022/07/25 05:11:44;;;;;;;4.97;4.47;;;;;;;19.69;84.51;100881.78;5113677;28;20123;-72
2022/07/25 05:14:10;;;;;;;9.02;5.38;;;;;;;19.72;85.75;100881.31;5113961;28;20471;-73
2022/07/25 05:16:35;;;;;;;8.82;5.20;;;;;;;19.98;84.67;100875.72;5112889;28;20036;-71
2022/07/25 05:19:01;;;;;;;5.15;4.43;;;;;;;20.35;83.29;100889.28;5112882;28;20126;-72
2022/07/25 05:21:26;;;;;;;4.70;4.20;;;;;;;20.58;81.86;100878.66;5111829;28;20042;-73
2022/07/25 05:23:52;;;;;;;5.65;4.05;;;;;;;20.70;80.67;100879.56;5113059;28;20543;-73
2022/07/25 05:26:18;;;;;;;4.85;4.30;;;;;;;20.71;80.80;100874.97;5111528;28;20127;-71
2022/07/25 05:28:44;;;;;;;5.35;4.43;;;;;;;20.50;81.60;100851.88;5112765;27;20061;-72
2022/07/25 05:31:09;;;;;;;4.53;4.13;;;;;;;20.40;81.08;100852.44;5112749;28;20479;-72
2022/07/25 05:33:35;;;;;;;4.97;4.45;;;;;;;20.38;81.54;100872.59;5112858;28;20039;-72
2022/07/25 05:36:02;;;;;;;3.80;3.50;;;;;;;20.31;81.93;100879.97;5112457;28;20031;-72
2022/07/25 05:38:28;;;;;;;4.72;3.50;;;;;;;20.13;82.29;100879.94;5112305;28;20150;-72
2022/07/25 05:40:55;;;;;;;5.60;3.70;;;;;;;20.12;82.76;100887.22;5112598;28;20050;-73
2022/07/25 05:43:20;;;;;;;4.30;3.90;;;;;;;20.14;82.48;100884.28;5111434;28;20024;-73
2022/07/25 05:45:48;;;;;;;6.57;4.00;;;;;;;20.20;82.07;100884.22;5112420;28;20123;-73
2022/07/25 05:48:14;;;;;;;4.60;3.28;;;;;;;20.22;81.86;100886.69;5112415;28;20042;-73
2022/07/25 05:50:40;;;;;;;5.85;3.70;;;;;;;20.20;81.51;100886.09;5112245;28;20486;-73
2022/07/25 05:53:06;;;;;;;5.95;3.60;;;;;;;20.13;82.07;100896.16;5112150;28;20468;-72
2022/07/25 05:55:31;;;;;;;4.45;3.85;;;;;;;19.99;82.66;100887.34;5112115;28;20063;-72
2022/07/25 05:57:57;;;;;;;5.00;3.97;;;;;;;19.72;83.63;100875.94;5112107;28;20169;-72
2022/07/25 06:00:23;;;;;;;8.10;4.10;;;;;;;19.71;84.32;100874.28;5112590;28;20036;-73
2022/07/25 06:02:48;;;;;;;5.35;3.78;;;;;;;19.92;84.45;100881.97;5115995;28;20483;-73
2022/07/25 06:05:14;;;;;;;7.93;3.83;;;;;;;20.19;83.54;100884.44;5116173;28;20125;-72
2022/07/25 06:07:40;;;;;;;4.55;3.72;;;;;;;20.34;81.37;100893.03;5116801;28;20031;-73
2022/07/25 06:10:06;;;;;;;6.82;4.13;;;;;;;20.49;81.08;100882.69;5121046;28;20036;-70
2022/07/25 06:12:32;;;;;;;8.95;3.95;;;;;;;20.76;79.79;100885.09;5115617;28;20042;-73
2022/07/25 06:14:59;;;;;;;5.32;3.75;;;;;;;21.02;78.75;100895.63;5114631;28;20035;-72
2022/07/25 06:17:25;;;;;;;8.27;4.40;;;;;;;21.05;78.07;100892.44;5112843;28;20035;-73
2022/07/25 06:19:50;;;;;;;4.85;3.92;;;;;;;21.22;77.66;100898.91;5112200;28;20387;-73
2022/07/25 06:22:15;;;;;;;6.43;3.90;;;;;;;21.32;77.32;100888.34;5111184;28;20482;-73
2022/07/25 06:24:41;;;;;;;4.43;4.03;;;;;;;21.40;76.97;100889.94;5112595;28;20144;-74
2022/07/25 06:27:07;;;;;;;6.07;4.43;;;;;;;21.50;76.71;100894.78;5113854;28;20038;-73
2022/07/25 06:29:33;;;;;;;4.60;3.72;;;;;;;21.61;76.62;100892.09;5116099;28;20070;-75
2022/07/25 06:32:02;;;;;;;6.15;3.92;;;;;;;21.65;75.97;100884.31;5116542;28;20467;-76
2022/07/25 06:34:28;;;;;;;5.13;4.07;;;;;;;21.65;75.91;100906.00;5115950;28;20046;-75
2022/07/25 06:36:56;;;;;;;5.15;4.32;;;;;;;21.19;77.83;100888.53;5116361;28;20027;-76
2022/07/25 06:39:24;;;;;;;3.90;3.50;;;;;;;21.13;78.57;100900.28;5115775;28;20047;-75
2022/07/25 06:41:50;;;;;;;;;;;;;;;21.29;78.01;100904.25;5116571;28;20073;-76
2022/07/25 06:44:15;;;;;;;5.13;3.70;;;;;;;21.37;76.91;100900.38;5115861;28;19915;-75
2022/07/25 06:46:42;;;;;;;5.63;4.47;;;;;;;21.53;76.37;100902.44;5116317;28;20074;-75
2022/07/25 06:49:07;;;;;;;4.38;3.97;;;;;;;21.64;75.78;100896.22;5115627;28;20486;-75
2022/07/25 06:51:33;;;;;;;4.65;3.45;;;;;;;21.88;75.04;100900.63;5114681;28;20035;-75
2022/07/25 06:53:59;;;;;;;4.13;3.42;;;;;;;22.29;72.78;100906.25;5116237;28;20023;-75
2022/07/25 07:00:09;;;;;;;4.32;3.53;;;;;;;22.49;71.22;100895.84;5115260;28;20042;-75
2022/07/25 07:02:55;;;;;;;5.93;3.75;;;;;;;22.36;72.40;100906.94;5114196;28;20036;-73
2022/07/25 07:05:26;;;;;;;5.90;3.80;;;;;;;22.11;72.62;100899.88;5114230;28;20153;-72
2022/07/25 07:07:52;;;;;;;9.40;4.10;;;;;;;22.07;73.05;100908.72;5115260;28;20043;-72
2022/07/25 07:10:20;;;;;;;9.70;3.90;;;;;;;22.06;73.11;100909.78;5115423;28;20109;-73
2022/07/25 07:12:46;;;;;;;6.15;3.47;;;;;;;22.07;72.85;100895.16;5115490;28;20046;-71
2022/07/25 07:15:13;;;;;;;5.03;3.20;;;;;;;22.21;72.39;100901.97;5115289;28;20123;-74
2022/07/25 07:17:38;;;;;;;3.67;3.15;;;;;;;22.32;72.07;100909.31;5115368;28;20058;-72
2022/07/25 07:20:05;;;;;;;7.65;3.90;;;;;;;22.36;72.00;100905.06;5115125;28;20482;-72
2022/07/25 07:22:31;;;;;;;5.75;2.92;;;;;;;22.31;71.44;100893.28;5114025;28;20032;-71
2022/07/25 07:24:56;;;;;;;6.03;2.70;;;;;;;22.29;71.92;100898.94;5115520;28;20152;-69
2022/07/25 07:27:25;;;;;;;5.70;3.08;;;;;;;22.23;70.74;100906.09;5115137;28;20108;-72
2022/07/25 07:29:50;;;;;;;3.70;3.38;;;;;;;22.22;71.17;100903.63;5115046;28;20118;-73
2022/07/25 07:32:16;;;;;;;4.20;3.00;;;;;;;22.15;71.27;100892.09;5115327;28;20119;-73
2022/07/25 07:34:41;;;;;;;5.32;3.67;;;;;;;22.26;71.74;100912.94;5115276;28;20536;-72
2022/07/25 07:37:07;;;;;;;7.63;5.60;;;;;;;22.36;71.07;100907.78;5113553;28;20081;-72
2022/07/25 07:39:32;;;;;;;5.80;3.75;;;;;;;22.31;70.72;100906.84;5113902;28;20090;-77
2022/07/25 07:41:58;;;;;;;8.15;4.00;;;;;;;22.30;70.06;100910.63;5115052;28;20396;-73
2022/07/25 07:44:23;;;;;;;5.85;3.55;;;;;;;22.34;69.69;100914.50;5114763;28;20040;-72
2022/07/25 07:46:49;;;;;;;5.20;3.20;;;;;;;22.42;69.55;100920.38;5114582;28;20044;-72
2022/07/25 07:49:14;;;;;;;4.18;3.50;;;;;;;22.53;68.51;100916.81;5115353;28;20486;-70
2022/07/25 07:51:40;;;;;;;3.80;3.20;;;;;;;22.61;68.41;100917.56;5114324;28;20104;-71
2022/07/25 07:56:49;;;;;;;6.22;3.78;;;;;;;22.72;68.77;100927.56;5114561;28;20034;-74
2022/07/25 07:59:15;;;;;;;9.15;4.00;;;;;;;22.66;68.73;100921.19;5114650;28;20040;-75
2022/07/25 08:01:40;;;;;;;8.32;3.50;;;;;;;22.66;70.16;100926.63;5113386;28;20123;-72
2022/07/25 08:04:06;;;;;;;9.52;4.82;;;;;;;22.78;69.70;100921.16;5113395;28;20027;-72
2022/07/25 08:06:32;;;;;;;4.47;3.80;;;;;;;22.87;68.66;100927.94;5113301;28;20039;-71
2022/07/25 08:08:57;;;;;;;4.45;3.53;;;;;;;22.95;68.06;100922.13;5114317;28;20039;-75
2022/07/25 08:11:24;;;;;;;8.10;4.28;;;;;;;23.18;69.18;100930.19;5114532;28;20540;-72
2022/07/25 08:13:50;;;;;;;6.15;3.75;;;;;;;23.35;70.04;100927.50;5114389;28;20501;-70
2022/07/25 08:16:15;;;;;;;5.40;4.22;;;;;;;23.41;69.34;100923.00;5114407;28;20028;-74
2022/07/25 08:18:41;;;;;;;4.50;3.97;;;;;;;23.47;70.32;100930.19;5114199;28;20088;-75
2022/07/25 08:21:06;;;;;;;4.95;3.78;;;;;;;23.40;69.60;100932.22;5114326;28;20032;-73
2022/07/25 08:23:34;;;;;;;6.75;4.03;;;;;;;23.31;70.40;100928.25;5114399;28;20042;-74
2022/07/25 08:26:01;;;;;;;6.20;4.18;;;;;;;23.25;70.03;100929.22;5114146;28;20099;-74
2022/07/25 08:28:27;;;;;;;6.72;3.80;;;;;;;23.16;70.44;100932.34;5114250;28;20046;-73
2022/07/25 08:30:53;;;;;;;5.60;4.30;;;;;;;22.97;70.72;100928.13;5114003;27;20042;-72
2022/07/25 08:33:18;;;;;;;8.23;4.60;;;;;;;22.98;71.18;100935.22;5113861;28;20035;-73
2022/07/25 08:35:46;;;;;;;7.93;5.32;;;;;;;22.87;69.85;100933.34;5114198;28;20065;-74
2022/07/25 08:38:13;;;;;;;5.22;4.13;;;;;;;22.64;70.74;100938.78;5113934;28;20038;-72
2022/07/25 08:40:39;;;;;;;6.82;3.67;;;;;;;22.31;72.01;100937.50;5113732;28;20143;-73
2022/07/25 08:43:04;;;;;;;9.43;3.47;;;;;;;22.06;73.15;100953.16;5113862;28;20469;-74
2022/07/25 08:45:31;;;;;;;10.30;3.95;;;;;;;21.86;73.97;100932.56;5095319;28;20031;-75
2022/07/25 08:47:58;;;;;;;8.18;3.95;;;;;;;22.06;74.04;100954.00;5112656;28;20423;-75
2022/07/25 08:50:26;;;;;;;5.70;3.60;;;;;;;22.03;73.37;100948.19;5114088;28;20042;-72
2022/07/25 08:52:52;;;;;;;5.93;3.75;;;;;;;22.10;73.07;100943.50;5113705;28;20126;-72
2022/07/25 08:55:22;;;;;;;4.30;3.90;;;;;;;22.20;73.27;100954.59;5113339;28;20027;-73
2022/07/25 08:57:49;;;;;;;6.10;3.65;;;;;;;22.32;73.42;100952.72;5113401;28;20483;-73
2022/07/25 09:00:21;;;;;;;7.20;3.63;;;;;;;22.30;72.21;100916.88;5113433;28;20032;-73
2022/07/25 09:02:58;;;;;;;14.30;4.15;;;;;;;22.83;72.37;100949.28;5113850;28;20038;-71
2022/07/25 09:05:25;;;;;;;10.88;5.82;;;;;;;23.13;70.18;100957.28;5113990;28;20048;-71
2022/07/25 09:07:53;;;;;;;9.05;5.45;;;;;;;23.34;69.87;100955.75;5113568;28;20077;-73
2022/07/25 09:10:23;;;;;;;8.88;3.90;;;;;;;23.29;69.41;100950.22;5113536;28;20165;-75
2022/07/25 09:13:00;;;;;;;5.35;3.47;;;;;;;23.01;71.77;100940.16;5113185;27;20084;-77
2022/07/25 09:15:35;;;;;;;8.18;3.88;;;;;;;23.01;70.61;100951.03;5113442;28;20118;-73
2022/07/25 09:18:06;;;;;;;4.35;3.80;;;;;;;23.17;70.05;100966.59;5112899;28;20039;-73
2022/07/25 09:20:39;;;;;;;11.82;4.03;;;;;;;23.19;69.31;100960.91;5113084;28;20449;-74
2022/07/25 09:23:05;;;;;;;10.38;5.45;;;;;;;23.10;68.67;100949.56;5112885;28;20198;-72
2022/07/25 09:25:30;;;;;;;6.50;4.43;;;;;;;23.34;69.07;100949.50;5113023;28;20110;-73
2022/07/25 09:28:09;;;;;;;4.22;3.35;;;;;;;23.59;67.10;100963.59;5113138;28;20065;-73
2022/07/25 09:30:35;;;;;;;6.18;3.25;;;;;;;23.73;66.36;100959.53;5111814;28;20465;-72
2022/07/25 09:33:00;;;;;;;6.35;3.78;;;;;;;23.85;66.15;100972.22;5111812;28;20127;-73
2022/07/25 09:35:35;;;;;;;4.03;2.92;;;;;;;23.79;65.20;100957.72;5113037;28;20031;-73
2022/07/25 09:38:13;;;;;;;6.15;3.70;;;;;;;23.84;65.29;100955.09;5112734;28;20414;-74
2022/07/25 09:40:53;;;;;;;5.07;3.80;;;;;;;23.81;65.73;100952.88;5113252;28;20080;-73
2022/07/25 09:43:18;;;;;;;4.90;4.30;;;;;;;23.57;65.83;100952.16;5115769;28;20039;-73
2022/07/25 09:45:50;;;;;;;7.30;3.75;;;;;;;23.53;66.97;100970.00;5120811;28;20043;-72
2022/07/25 09:48:21;;;;;;;7.68;3.60;;;;;;;23.09;67.75;100975.09;5116104;28;20080;-71
2022/07/25 09:50:47;;;;;;;4.22;3.25;;;;;;;22.71;68.40;100977.50;5118114;28;20054;-73
2022/07/25 09:53:13;;;;;;;3.85;3.30;;;;;;;22.63;68.24;100972.44;5114379;28;20398;-73
2022/07/25 09:55:40;;;;;;;6.82;3.03;;;;;;;22.62;68.45;100978.91;5113417;28;20036;-71
2022/07/25 09:58:05;;;;;;;11.38;5.82;;;;;;;22.70;68.87;100971.22;5116229;28;20444;-71
2022/07/25 10:00:31;;;;;;;4.47;3.95;;;;;;;22.81;69.19;100967.69;5114838;28;20077;-74
2022/07/25 10:03:33;;;;;;;6.72;3.72;;;;;;;22.91;68.51;100974.44;5112018;28;20057;-73
2022/07/25 10:06:20;;;;;;;5.13;3.22;;;;;;;22.80;70.13;100979.59;5112323;28;20055;-71
2022/07/25 10:08:48;;;;;;;7.05;3.97;;;;;;;22.65;70.48;100973.84;5112316;28;20023;-72
2022/07/25 10:11:21;;;;;;;8.50;5.07;;;;;;;22.64;70.94;100974.91;5112194;28;20031;-71
2022/07/25 10:13:47;;;;;;;6.97;4.40;;;;;;;22.67;70.42;100965.47;5111180;28;20027;-74
2022/07/25 10:16:18;;;;;;;6.10;3.25;;;;;;;22.77;70.18;100961.06;5112230;28;20100;-70
2022/07/25 10:18:54;;;;;;;5.13;4.60;;;;;;;22.91;70.22;100983.41;5111974;28;20126;-73
2022/07/25 10:21:22;;;;;;;5.68;5.07;;;;;;;22.89;70.11;100988.25;5112134;28;20402;-72
2022/07/25 10:24:01;;;;;;;8.65;4.85;;;;;;;22.94;69.85;100982.94;5112210;28;20039;-72
2022/07/25 10:26:28;;;;;;;7.13;4.50;;;;;;;23.01;69.45;100982.78;5112018;28;20032;-72
2022/07/25 10:28:57;;;;;;;5.38;4.22;;;;;;;23.17;68.80;100982.88;5111831;28;20482;-71
2022/07/25 10:31:34;;;;;;;7.10;4.82;;;;;;;23.37;68.37;100981.63;5111629;28;20035;-71
2022/07/25 10:34:05;;;;;;;5.35;4.32;;;;;;;23.57;68.32;100987.50;5111900;28;20035;-71
2022/07/25 10:36:41;;;;;;;4.88;3.80;;;;;;;23.91;66.47;100984.84;5111880;28;20504;-73
2022/07/25 10:39:12;;;;;;;5.00;3.42;;;;;;;24.20;64.58;100986.44;5111372;28;20058;-71
2022/07/25 10:42:04;;;;;;;5.63;4.35;;;;;;;24.32;63.42;101000.00;5111967;28;20559;-72
2022/07/25 10:44:44;;;;;;;4.47;3.58;;;;;;;24.20;63.58;100997.31;5111392;28;20046;-70
2022/07/25 10:47:12;;;;;;;5.50;4.03;;;;;;;24.17;63.95;100999.72;5112279;28;20039;-71
2022/07/25 10:49:42;;;;;;;4.07;3.67;;;;;;;23.91;65.35;100993.81;5114140;28;20063;-71
2022/07/25 10:52:17;;;;;;;4.60;3.83;;;;;;;23.88;66.42;100997.03;5116115;28;20100;-72
2022/07/25 10:54:53;;;;;;;6.93;3.72;;;;;;;23.94;67.16;100987.06;5117783;28;20035;-70
2022/07/25 10:57:19;;;;;;;4.85;3.47;;;;;;;23.93;66.29;100996.31;5112880;28;20085;-71
2022/07/25 10:59:45;;;;;;;3.97;3.08;;;;;;;23.88;66.57;100994.31;5111087;28;20055;-71
2022/07/25 11:02:15;;;;;;;4.72;3.35;;;;;;;23.59;67.28;100979.91;5112013;28;20537;-73
2022/07/25 11:05:01;;;;;;;6.25;3.75;;;;;;;23.59;68.09;100988.06;5093579;28;20035;-72
2022/07/25 11:07:34;;;;;;;5.32;3.90;;;;;;;23.61;67.82;100988.66;5111234;28;20119;-72
2022/07/25 11:10:03;;;;;;;9.32;4.60;;;;;;;23.92;66.72;101000.09;5114160;28;20035;-71
2022/07/25 11:12:30;;;;;;;7.75;4.13;;;;;;;24.08;65.78;101002.03;5116200;28;20067;-70
2022/07/25 11:15:00;;;;;;;4.88;3.83;;;;;;;24.25;65.66;100997.41;5119632;28;20043;-73
2022/07/25 11:17:28;;;;;;;4.10;3.63;;;;;;;24.50;64.84;100990.75;5119424;28;20035;-72
2022/07/25 11:20:04;;;;;;;6.15;4.03;;;;;;;24.84;63.56;100996.94;5113876;28;20542;-70
2022/07/25 11:22:31;;;;;;;4.82;3.83;;;;;;;25.02;62.67;101002.16;5115223;28;20096;-74
2022/07/25 11:24:58;;;;;;;3.83;3.50;;;;;;;25.19;62.99;101004.81;5114953;28;20036;-70
2022/07/25 11:27:32;;;;;;;4.82;3.20;;;;;;;25.32;62.55;101007.16;5114915;28;20511;-74
2022/07/25 11:30:18;;;;;;;3.50;3.20;;;;;;;25.41;62.33;101005.63;5115138;28;20053;-71
2022/07/25 11:32:50;;;;;;;5.82;4.18;;;;;;;24.98;62.24;100985.47;5115161;28;20039;-73